Terminal Aerodrome Forecast
Issued by NWS

Home | Current Version | Previous Version | Text Only | Print | Product List | Glossary On
Versions: 1 2 3 4 5 6 7 8 9 10 11 12 13 14 15 16 17 18 19 20 21 22 23 24 25 26 27 28 29 30 31
000
FTUS45 KREV 011100
TAFRNO
TAF
KRNO 011120Z 0112/0212 VRB03KT P6SM SCT120
     FM012200 27010KT P6SM VCTS SCT100CB BKN150
     FM020000 28010G20KT P6SM SCT140
     FM020500 VRB03KT P6SM SKC=

USA.gov is the U.S. government's official web portal to all federal, state and local government web resources and services.